Time;durP1;ratioP1;P1;durP2;ratioP2;P2;SDS_P1;SDS_P2;PMS_P1;PMS_P2;Temp;Humidity;BMP_temperature;BMP_pressure;BME280_temperature;BME280_humidity;BME280_pressure;Samples;Min_cycle;Max_cycle;Signal;HPM_P1;HPM_P2
2021/06/30 00:01:41;;;;;;;9.77;7.40;;;16.50;99.90;;;;;;5053234;28;20215;-71
2021/06/30 00:04:08;;;;;;;5.77;4.50;;;16.50;99.90;;;;;;5053995;28;20171;-71
2021/06/30 00:06:33;;;;;;;6.90;5.50;;;16.50;99.90;;;;;;5054106;28;20160;-71
2021/06/30 00:08:59;;;;;;;4.70;2.70;;;16.50;99.90;;;;;;5053789;28;20826;-71
2021/06/30 00:11:26;;;;;;;3.87;2.40;;;16.60;99.90;;;;;;5054421;28;20157;-71
2021/06/30 00:13:52;;;;;;;2.90;2.70;;;16.60;99.90;;;;;;5055225;28;20489;-71
2021/06/30 00:16:18;;;;;;;2.20;2.00;;;16.60;99.90;;;;;;5053657;28;20397;-71
2021/06/30 00:18:43;;;;;;;3.57;2.43;;;16.60;99.90;;;;;;5053167;28;20606;-71
2021/06/30 00:21:09;;;;;;;8.07;5.53;;;16.60;99.90;;;;;;5053473;28;20202;-71
2021/06/30 00:23:34;;;;;;;13.70;8.37;;;16.60;99.90;;;;;;5053615;28;20163;-71
2021/06/30 00:26:00;;;;;;;22.17;11.90;;;16.60;99.90;;;;;;5054558;28;20165;-71
2021/06/30 00:28:26;;;;;;;16.10;11.10;;;16.60;99.90;;;;;;5054839;28;20645;-71
2021/06/30 00:30:51;;;;;;;20.27;12.30;;;16.60;99.90;;;;;;5053514;28;20501;-71
2021/06/30 00:33:18;;;;;;;16.60;11.50;;;16.60;99.90;;;;;;5053463;28;20152;-71
2021/06/30 00:35:43;;;;;;;17.30;10.23;;;16.60;99.90;;;;;;5040795;28;20169;-71
2021/06/30 00:38:09;;;;;;;10.67;6.90;;;16.60;99.90;;;;;;5033348;28;20435;-71
2021/06/30 00:40:35;;;;;;;9.93;7.17;;;16.60;99.90;;;;;;5034182;28;20157;-71
2021/06/30 00:43:00;;;;;;;9.60;5.37;;;16.60;99.90;;;;;;5046869;28;20187;-71
2021/06/30 00:45:26;;;;;;;6.40;5.73;;;16.60;99.90;;;;;;5053264;28;20156;-71
2021/06/30 00:47:51;;;;;;;8.57;5.73;;;16.60;99.90;;;;;;5053124;28;20188;-71
2021/06/30 00:50:19;;;;;;;7.33;6.30;;;16.60;99.90;;;;;;5053150;28;20152;-71
2021/06/30 00:52:45;;;;;;;6.00;5.27;;;16.60;99.90;;;;;;5039468;28;20711;-71
2021/06/30 00:55:12;;;;;;;5.70;4.83;;;16.60;99.90;;;;;;5034566;28;20419;-71
2021/06/30 00:57:38;;;;;;;5.43;4.93;;;16.60;99.90;;;;;;5033908;28;20907;-71
2021/06/30 01:00:05;;;;;;;5.57;4.80;;;16.60;99.90;;;;;;5032911;28;20430;-71
2021/06/30 01:02:31;;;;;;;6.03;5.47;;;16.60;99.90;;;;;;5033059;28;20803;-71
2021/06/30 01:04:56;;;;;;;10.33;7.70;;;16.60;99.90;;;;;;5032840;28;20396;-71
2021/06/30 01:07:22;;;;;;;10.43;8.10;;;16.60;99.90;;;;;;5032681;28;20200;-71
2021/06/30 01:09:47;;;;;;;9.20;7.90;;;16.60;99.90;;;;;;5034974;28;20177;-71
2021/06/30 01:12:13;;;;;;;8.53;7.17;;;16.50;99.90;;;;;;5033008;28;20187;-71
2021/06/30 01:14:40;;;;;;;10.33;5.80;;;16.50;99.90;;;;;;5032808;28;20160;-71
2021/06/30 01:17:07;;;;;;;6.97;5.70;;;16.50;99.90;;;;;;5032532;28;20634;-71
2021/06/30 01:19:35;;;;;;;9.13;6.67;;;16.40;99.90;;;;;;5032712;28;20439;-71
2021/06/30 01:22:01;;;;;;;7.00;5.93;;;16.40;99.90;;;;;;5032491;28;20428;-71
2021/06/30 01:24:27;;;;;;;6.90;6.07;;;16.30;99.90;;;;;;5034075;28;20888;-71
2021/06/30 01:26:53;;;;;;;6.13;5.33;;;16.30;99.90;;;;;;5046013;28;20418;-71
2021/06/30 01:29:20;;;;;;;6.20;5.60;;;16.30;99.90;;;;;;5052538;28;20369;-71
2021/06/30 01:31:46;;;;;;;8.63;7.73;;;16.20;99.90;;;;;;5052248;28;20419;-71
2021/06/30 01:34:12;;;;;;;8.00;7.20;;;16.20;99.90;;;;;;5052221;28;20390;-71
2021/06/30 01:36:50;;;;;;;9.30;7.10;;;16.10;99.90;;;;;;5052175;28;20158;-71
2021/06/30 01:39:17;;;;;;;8.70;7.77;;;16.10;99.90;;;;;;5053517;28;20464;-71
2021/06/30 01:41:43;;;;;;;12.80;9.17;;;16.10;99.90;;;;;;5052311;28;20911;-71
2021/06/30 01:44:09;;;;;;;10.73;8.23;;;16.10;99.90;;;;;;5051053;28;20430;-71
2021/06/30 01:46:36;;;;;;;6.70;6.10;;;16.10;99.90;;;;;;5052141;28;20417;-71
2021/06/30 01:49:01;;;;;;;6.73;6.13;;;16.10;99.90;;;;;;5052009;28;20849;-71
2021/06/30 01:51:27;;;;;;;7.03;6.40;;;16.20;99.90;;;;;;5052067;28;20394;-71
2021/06/30 01:53:55;;;;;;;6.20;5.60;;;16.20;99.90;;;;;;5053144;28;20242;-71
2021/06/30 01:56:23;;;;;;;6.63;6.00;;;16.20;99.90;;;;;;5051980;28;20186;-71
2021/06/30 01:58:57;;;;;;;7.00;6.23;;;16.20;99.90;;;;;;5051693;28;20445;-71
2021/06/30 02:01:23;;;;;;;7.63;6.90;;;16.30;99.90;;;;;;5051033;28;20436;-71
2021/06/30 02:03:48;;;;;;;8.30;7.43;;;16.30;99.90;;;;;;5051672;28;20818;-71
2021/06/30 02:06:14;;;;;;;7.70;6.93;;;16.30;99.90;;;;;;5051778;28;20394;-71
2021/06/30 02:08:39;;;;;;;5.90;5.40;;;16.20;99.90;;;;;;5052428;28;20302;-71
2021/06/30 02:11:05;;;;;;;7.07;6.47;;;16.20;99.90;;;;;;5052075;28;20297;-71
2021/06/30 02:13:31;;;;;;;6.80;6.20;;;16.20;99.90;;;;;;5051796;28;20171;-71
2021/06/30 02:15:56;;;;;;;7.17;6.57;;;16.30;99.90;;;;;;5051949;28;20678;-71
2021/06/30 02:18:22;;;;;;;7.60;6.90;;;16.30;99.90;;;;;;5051012;28;20207;-71
2021/06/30 02:20:48;;;;;;;7.47;6.87;;;16.30;99.90;;;;;;5051884;28;20221;-71
2021/06/30 02:23:14;;;;;;;8.00;7.20;;;16.30;99.90;;;;;;5053713;28;20170;-71
2021/06/30 02:25:39;;;;;;;8.33;7.47;;;16.30;99.90;;;;;;5051884;28;20493;-71
2021/06/30 02:28:05;;;;;;;8.50;7.80;;;16.30;99.90;;;;;;5051553;28;20253;-71
2021/06/30 02:30:32;;;;;;;8.53;7.83;;;16.30;99.90;;;;;;5051536;28;20152;-71
2021/06/30 02:33:00;;;;;;;8.53;7.70;;;16.30;99.90;;;;;;5051917;28;20259;-71
2021/06/30 02:35:27;;;;;;;8.07;7.37;;;16.20;99.90;;;;;;5033241;28;20488;-71
2021/06/30 02:37:55;;;;;;;7.93;7.13;;;16.20;99.90;;;;;;5033364;28;20395;-69
2021/06/30 02:40:22;;;;;;;10.10;8.93;;;16.20;99.90;;;;;;5031837;28;20945;-69
2021/06/30 02:42:48;;;;;;;9.67;8.77;;;16.20;99.90;;;;;;5031597;28;20399;-69
2021/06/30 02:45:16;;;;;;;14.90;8.87;;;16.20;99.90;;;;;;5031681;28;20890;-69
2021/06/30 02:47:43;;;;;;;8.43;7.73;;;16.20;99.90;;;;;;5031449;28;20814;-69
2021/06/30 02:50:11;;;;;;;10.00;9.13;;;16.20;99.90;;;;;;5031901;28;20530;-69
2021/06/30 02:52:37;;;;;;;9.87;8.90;;;16.20;99.90;;;;;;5051393;28;20402;-72
2021/06/30 02:55:04;;;;;;;10.07;9.17;;;16.20;99.90;;;;;;5051618;28;20918;-72
2021/06/30 02:57:30;;;;;;;10.40;9.40;;;16.20;99.90;;;;;;5051528;28;20192;-72
2021/06/30 02:59:55;;;;;;;9.00;8.20;;;16.20;99.90;;;;;;5051255;28;20450;-73
2021/06/30 03:02:21;;;;;;;10.40;9.40;;;16.10;99.90;;;;;;5051387;28;20160;-72
2021/06/30 03:04:46;;;;;;;9.20;8.30;;;16.10;99.90;;;;;;5051271;28;20168;-72
2021/06/30 03:07:12;;;;;;;10.40;8.70;;;16.10;99.90;;;;;;5050554;28;20217;-72
2021/06/30 03:09:38;;;;;;;10.40;9.00;;;16.10;99.90;;;;;;5051404;28;20180;-72
2021/06/30 03:12:04;;;;;;;10.50;9.60;;;16.10;99.90;;;;;;5051079;28;20160;-72
2021/06/30 03:14:29;;;;;;;11.03;10.03;;;16.00;99.90;;;;;;5051626;28;20159;-72
2021/06/30 03:16:56;;;;;;;10.70;9.80;;;16.00;99.90;;;;;;5054938;28;20394;-73
2021/06/30 03:19:21;;;;;;;10.83;9.87;;;16.00;99.90;;;;;;5054861;28;20243;-73
2021/06/30 03:21:47;;;;;;;10.30;9.47;;;16.00;99.90;;;;;;5054748;28;20449;-73
2021/06/30 03:24:13;;;;;;;11.60;10.40;;;16.00;99.90;;;;;;5054659;28;20156;-73
2021/06/30 03:26:39;;;;;;;11.50;10.30;;;15.90;99.90;;;;;;5034904;28;20208;-73
2021/06/30 03:29:04;;;;;;;10.20;9.23;;;16.00;99.90;;;;;;5034728;28;20521;-73
2021/06/30 03:31:31;;;;;;;10.87;9.60;;;16.00;99.90;;;;;;5034602;28;20160;-73
2021/06/30 03:33:57;;;;;;;11.43;10.33;;;15.90;99.90;;;;;;5035532;28;20157;-72
2021/06/30 03:36:23;;;;;;;10.80;9.80;;;15.90;99.90;;;;;;5034774;28;20481;-72
2021/06/30 03:38:49;;;;;;;13.53;10.60;;;15.90;99.90;;;;;;5034647;28;20904;-72
2021/06/30 03:41:14;;;;;;;11.90;10.90;;;15.90;99.90;;;;;;5034925;28;20167;-72
2021/06/30 03:43:40;;;;;;;12.20;11.10;;;15.90;99.90;;;;;;5034362;28;20438;-72
2021/06/30 03:46:08;;;;;;;11.87;10.77;;;15.90;99.90;;;;;;5034575;28;20167;-72
2021/06/30 03:48:34;;;;;;;11.53;10.47;;;15.90;99.90;;;;;;5034251;28;20188;-72
2021/06/30 03:50:59;;;;;;;10.30;9.40;;;15.90;99.90;;;;;;5034469;28;20887;-72
2021/06/30 03:53:25;;;;;;;10.00;9.10;;;15.90;99.90;;;;;;5034464;28;20176;-72
2021/06/30 03:55:51;;;;;;;9.30;8.50;;;15.90;99.90;;;;;;5034199;28;20180;-72
2021/06/30 03:58:16;;;;;;;9.50;8.60;;;15.90;99.90;;;;;;5034700;28;20560;-72
2021/06/30 04:00:42;;;;;;;8.10;7.30;;;15.90;99.90;;;;;;5034196;28;20171;-72
2021/06/30 04:03:07;;;;;;;6.90;6.20;;;15.90;99.90;;;;;;5034205;28;20161;-72
2021/06/30 04:05:33;;;;;;;7.50;6.80;;;15.80;99.90;;;;;;5034253;28;20538;-72
2021/06/30 04:07:58;;;;;;;7.10;6.40;;;15.90;99.90;;;;;;5033951;28;20208;-72
2021/06/30 04:10:24;;;;;;;8.77;6.80;;;15.90;99.90;;;;;;5033881;28;20157;-73
2021/06/30 04:12:49;;;;;;;7.70;7.00;;;15.90;99.90;;;;;;5034001;28;20168;-73
2021/06/30 04:15:15;;;;;;;7.60;6.80;;;16.00;99.90;;;;;;5034332;28;20204;-73
2021/06/30 04:17:40;;;;;;;8.00;7.10;;;16.00;99.90;;;;;;5033717;28;20190;-73
2021/06/30 04:20:09;;;;;;;8.07;6.20;;;16.00;99.90;;;;;;5034121;28;20172;-72
2021/06/30 04:22:35;;;;;;;7.40;6.40;;;16.00;99.90;;;;;;5033742;28;20692;-72
2021/06/30 04:25:04;;;;;;;6.53;6.03;;;16.00;99.90;;;;;;5033719;28;20505;-72
2021/06/30 04:27:31;;;;;;;9.30;6.67;;;15.90;99.90;;;;;;5033623;28;20513;-72
2021/06/30 04:29:57;;;;;;;6.57;5.97;;;15.90;99.90;;;;;;5033746;28;20441;-72
2021/06/30 04:32:23;;;;;;;7.10;6.23;;;15.90;99.90;;;;;;5034310;28;20754;-72
2021/06/30 04:34:49;;;;;;;6.07;5.40;;;16.00;99.90;;;;;;5033997;28;20387;-73
2021/06/30 04:37:14;;;;;;;6.10;5.40;;;16.00;99.90;;;;;;5036593;28;20215;-72
2021/06/30 04:39:40;;;;;;;6.07;5.53;;;16.00;99.90;;;;;;5037938;28;20189;-72
2021/06/30 04:42:06;;;;;;;6.17;5.53;;;16.10;99.90;;;;;;5041604;28;20265;-72
2021/06/30 04:44:31;;;;;;;5.90;4.33;;;16.20;99.90;;;;;;5053409;28;20166;-72
2021/06/30 04:46:57;;;;;;;4.40;4.00;;;16.30;99.90;;;;;;5034006;28;20577;-72
2021/06/30 04:49:22;;;;;;;5.63;3.90;;;16.30;99.90;;;;;;5035037;28;20160;-72
2021/06/30 04:51:48;;;;;;;4.67;3.80;;;16.30;99.90;;;;;;5045586;28;20400;-72
2021/06/30 04:54:14;;;;;;;4.17;3.77;;;16.40;99.90;;;;;;5047893;28;20242;-72
2021/06/30 04:56:39;;;;;;;3.70;3.40;;;16.30;99.90;;;;;;5033373;28;20525;-72
2021/06/30 04:59:06;;;;;;;4.07;3.70;;;16.30;99.90;;;;;;5032972;28;20426;-72
2021/06/30 05:01:32;;;;;;;4.30;3.37;;;16.20;99.90;;;;;;5033168;28;20532;-72
2021/06/30 05:03:57;;;;;;;4.27;3.50;;;16.20;99.90;;;;;;5033684;28;20410;-72
2021/06/30 05:06:23;;;;;;;3.37;2.93;;;16.30;99.90;;;;;;5034103;28;20172;-72
2021/06/30 05:08:48;;;;;;;4.10;3.40;;;16.30;99.90;;;;;;5052669;28;20188;-72
2021/06/30 05:11:14;;;;;;;3.53;3.20;;;16.30;99.90;;;;;;5045050;28;20172;-72
2021/06/30 05:13:40;;;;;;;4.83;3.60;;;16.30;99.90;;;;;;5046874;28;20309;-72
2021/06/30 05:16:06;;;;;;;3.80;3.40;;;16.40;99.90;;;;;;5037542;28;20181;-72
2021/06/30 05:18:32;;;;;;;4.37;3.87;;;16.40;99.90;;;;;;5034012;28;20183;-72
2021/06/30 05:20:57;;;;;;;4.83;3.67;;;16.40;99.90;;;;;;5042502;28;20431;-72
2021/06/30 05:23:23;;;;;;;5.00;3.17;;;16.50;99.90;;;;;;5041078;28;20192;-72
2021/06/30 05:25:49;;;;;;;5.60;3.70;;;16.60;99.90;;;;;;5054806;28;20183;-72
2021/06/30 05:28:14;;;;;;;3.40;3.10;;;16.60;99.90;;;;;;5039224;28;20207;-72
2021/06/30 05:30:40;;;;;;;3.50;3.20;;;16.70;99.90;;;;;;5046002;28;20443;-72
2021/06/30 05:33:06;;;;;;;3.23;2.93;;;16.70;99.90;;;;;;5042067;28;20187;-72
2021/06/30 05:35:32;;;;;;;4.30;3.07;;;16.70;99.90;;;;;;5037385;28;20774;-72
2021/06/30 05:37:58;;;;;;;5.00;2.93;;;16.80;99.90;;;;;;5038814;28;20427;-72
2021/06/30 05:40:23;;;;;;;2.57;2.00;;;16.90;99.90;;;;;;5047014;28;20172;-72
2021/06/30 05:42:49;;;;;;;2.60;2.40;;;16.90;99.90;;;;;;5042749;28;20309;-72
2021/06/30 05:45:16;;;;;;;2.30;2.10;;;16.90;99.90;;;;;;5049931;28;20172;-72
2021/06/30 05:47:44;;;;;;;3.10;2.80;;;17.00;99.90;;;;;;5040361;28;20296;-72
2021/06/30 05:50:11;;;;;;;3.00;2.30;;;17.10;99.90;;;;;;5039322;28;20431;-72
2021/06/30 05:52:36;;;;;;;3.43;2.50;;;17.10;99.90;;;;;;5039700;28;20526;-72
2021/06/30 05:55:02;;;;;;;3.20;2.43;;;17.10;99.90;;;;;;5039228;28;20599;-72
2021/06/30 05:57:28;;;;;;;4.20;2.37;;;17.10;99.90;;;;;;5037581;28;20558;-72
2021/06/30 05:59:53;;;;;;;2.43;2.23;;;17.10;99.90;;;;;;5045811;28;20454;-72
2021/06/30 06:02:19;;;;;;;3.67;2.50;;;17.20;99.90;;;;;;5044227;28;20177;-72
2021/06/30 06:04:44;;;;;;;3.63;3.33;;;17.20;99.90;;;;;;5041338;28;20191;-72
2021/06/30 06:07:10;;;;;;;3.40;3.10;;;17.30;99.90;;;;;;5036181;28;20295;-72
2021/06/30 06:09:35;;;;;;;4.07;3.67;;;17.30;99.90;;;;;;5041097;28;20542;-72
2021/06/30 06:12:04;;;;;;;3.67;2.83;;;17.40;99.90;;;;;;5043234;28;20226;-72
2021/06/30 06:14:30;;;;;;;4.00;2.87;;;17.50;99.90;;;;;;5035921;28;20219;-72
2021/06/30 06:16:56;;;;;;;3.23;2.83;;;17.60;99.90;;;;;;5039041;28;20942;-72
2021/06/30 06:19:23;;;;;;;6.40;2.60;;;17.60;99.90;;;;;;5041972;28;20172;-71
2021/06/30 06:21:48;;;;;;;2.60;2.40;;;17.70;99.90;;;;;;5043890;28;20892;-71
2021/06/30 06:24:14;;;;;;;2.97;2.53;;;17.70;99.90;;;;;;5036483;28;20454;-72
2021/06/30 06:26:40;;;;;;;3.27;3.00;;;17.80;99.90;;;;;;5038358;28;20310;-72
2021/06/30 06:29:06;;;;;;;2.77;2.57;;;17.80;99.90;;;;;;5043184;28;21042;-72
2021/06/30 06:31:31;;;;;;;2.80;2.60;;;17.80;99.90;;;;;;5035929;28;20181;-72
2021/06/30 06:33:57;;;;;;;3.33;2.60;;;17.80;99.90;;;;;;5043032;28;20180;-72
2021/06/30 06:36:24;;;;;;;4.00;3.60;;;17.80;99.90;;;;;;5039792;28;20189;-72
2021/06/30 06:38:50;;;;;;;2.60;2.40;;;17.80;99.90;;;;;;5043227;28;20194;-72
2021/06/30 06:41:16;;;;;;;3.97;3.23;;;17.80;99.90;;;;;;5045090;28;20506;-72
2021/06/30 06:43:43;;;;;;;3.77;2.40;;;17.80;99.90;;;;;;5045705;28;20581;-72
2021/06/30 06:46:10;;;;;;;3.27;2.97;;;17.80;99.90;;;;;;5046552;28;20234;-72
2021/06/30 06:48:36;;;;;;;2.87;2.60;;;17.80;99.90;;;;;;5045805;28;20458;-72
2021/06/30 06:51:02;;;;;;;2.97;2.67;;;17.90;99.90;;;;;;5038411;28;20810;-72
2021/06/30 06:53:28;;;;;;;3.27;3.07;;;18.00;99.90;;;;;;5042452;28;20948;-72
2021/06/30 06:55:55;;;;;;;3.07;2.77;;;18.00;99.90;;;;;;5043826;28;20511;-72
2021/06/30 06:58:21;;;;;;;2.97;2.43;;;18.00;99.90;;;;;;5039434;28;20176;-72
2021/06/30 07:00:47;;;;;;;4.40;2.40;;;18.10;99.90;;;;;;5040836;28;20460;-72
2021/06/30 07:03:13;;;;;;;2.87;2.67;;;18.10;99.90;;;;;;5041456;28;20174;-72
2021/06/30 07:05:38;;;;;;;2.67;2.47;;;18.20;99.90;;;;;;5042644;28;20445;-72
2021/06/30 07:08:04;;;;;;;2.37;2.13;;;18.20;99.90;;;;;;5037450;28;20216;-72
2021/06/30 07:10:30;;;;;;;2.47;2.27;;;18.10;99.90;;;;;;5045997;28;20219;-72
2021/06/30 07:12:55;;;;;;;2.80;2.60;;;18.20;99.90;;;;;;5044345;28;20176;-72
2021/06/30 07:15:21;;;;;;;2.63;2.40;;;18.20;99.90;;;;;;5044663;28;20181;-72
2021/06/30 07:17:46;;;;;;;3.83;2.90;;;18.30;99.90;;;;;;5041309;28;20177;-72
2021/06/30 07:20:12;;;;;;;3.00;2.70;;;18.40;99.90;;;;;;5038914;28;20184;-72
2021/06/30 07:22:37;;;;;;;3.30;3.10;;;18.50;99.90;;;;;;5042688;28;20301;-72
2021/06/30 07:25:03;;;;;;;2.90;2.70;;;18.70;99.90;;;;;;5041803;28;20241;-72
2021/06/30 07:27:29;;;;;;;5.07;2.53;;;18.90;99.90;;;;;;5043477;28;20712;-72
2021/06/30 07:29:54;;;;;;;2.57;2.30;;;19.10;99.90;;;;;;5040700;28;20180;-72
2021/06/30 07:32:20;;;;;;;2.70;2.50;;;19.30;99.90;;;;;;5042877;28;20607;-72
2021/06/30 07:34:46;;;;;;;4.07;3.33;;;19.50;99.90;;;;;;5041149;28;20185;-72
2021/06/30 07:37:11;;;;;;;3.67;2.87;;;19.50;99.90;;;;;;5047355;28;20708;-72
2021/06/30 07:39:37;;;;;;;2.80;2.60;;;19.60;99.90;;;;;;5037946;28;20177;-72
2021/06/30 07:42:03;;;;;;;3.33;2.43;;;19.50;99.90;;;;;;5037491;28;20599;-72
2021/06/30 07:44:29;;;;;;;2.60;2.40;;;19.40;99.90;;;;;;5043651;28;20656;-72
2021/06/30 07:46:55;;;;;;;2.97;2.77;;;19.40;99.90;;;;;;5036208;28;20461;-72
2021/06/30 07:49:20;;;;;;;2.50;2.30;;;19.40;99.90;;;;;;5035848;28;20207;-72
2021/06/30 07:51:46;;;;;;;4.20;2.90;;;19.30;99.90;;;;;;5037930;28;20430;-72
2021/06/30 07:54:12;;;;;;;2.70;2.37;;;19.30;99.90;;;;;;5036981;28;20199;-72
2021/06/30 07:56:37;;;;;;;3.77;2.87;;;19.30;99.90;;;;;;5042645;28;20225;-72
2021/06/30 07:59:04;;;;;;;2.73;2.53;;;19.30;99.90;;;;;;5037910;28;20256;-72
2021/06/30 08:01:31;;;;;;;3.00;2.80;;;19.20;99.90;;;;;;5038792;28;20259;-72
2021/06/30 08:03:56;;;;;;;3.90;2.73;;;19.20;99.90;;;;;;5036722;28;20434;-72
2021/06/30 08:06:22;;;;;;;7.27;3.40;;;19.10;99.90;;;;;;5034977;28;20446;-72
2021/06/30 08:08:48;;;;;;;3.90;3.60;;;19.10;99.90;;;;;;5038181;28;20204;-72
2021/06/30 08:11:13;;;;;;;3.50;3.20;;;19.10;99.90;;;;;;5037289;28;20218;-72
2021/06/30 08:13:39;;;;;;;3.50;3.30;;;19.10;99.90;;;;;;5041949;28;20650;-72
2021/06/30 08:16:04;;;;;;;4.73;3.77;;;19.10;99.90;;;;;;5042576;28;20176;-72
2021/06/30 08:18:30;;;;;;;3.43;3.23;;;19.20;99.90;;;;;;5037083;28;20180;-72
2021/06/30 08:20:55;;;;;;;5.00;3.27;;;19.40;99.90;;;;;;5038735;28;20645;-72
2021/06/30 08:23:21;;;;;;;4.10;3.80;;;20.00;99.90;;;;;;5037256;28;20672;-72
2021/06/30 08:25:47;;;;;;;5.27;4.23;;;20.40;99.90;;;;;;5047113;28;20172;-72
2021/06/30 08:28:16;;;;;;;4.60;4.30;;;20.60;99.90;;;;;;5037777;28;20601;-72
2021/06/30 08:30:41;;;;;;;10.10;8.87;;;20.70;99.90;;;;;;5038718;28;20668;-72
2021/06/30 08:33:07;;;;;;;11.20;9.20;;;20.90;99.90;;;;;;5043103;28;20428;-72
2021/06/30 08:35:33;;;;;;;7.07;6.20;;;20.90;99.90;;;;;;5041332;28;20193;-72
2021/06/30 08:37:58;;;;;;;6.93;6.23;;;20.90;99.90;;;;;;5041328;28;20179;-72
2021/06/30 08:40:24;;;;;;;7.90;7.20;;;20.80;99.90;;;;;;5042510;28;20188;-72
2021/06/30 08:42:49;;;;;;;8.67;7.87;;;20.90;99.90;;;;;;5042325;28;20172;-72
2021/06/30 08:45:15;;;;;;;8.57;7.87;;;20.90;99.90;;;;;;5045085;28;20257;-72
2021/06/30 08:47:42;;;;;;;9.30;8.50;;;20.90;99.90;;;;;;5043616;28;20200;-72
2021/06/30 08:50:09;;;;;;;9.87;9.10;;;21.40;99.90;;;;;;5040985;28;20255;-72
2021/06/30 08:52:36;;;;;;;10.03;9.10;;;21.80;99.90;;;;;;5036760;28;20507;-72
2021/06/30 08:55:05;;;;;;;9.60;8.70;;;22.00;99.90;;;;;;5040709;28;20462;-72
2021/06/30 08:57:32;;;;;;;9.37;8.57;;;22.00;99.90;;;;;;5040459;28;20930;-72
2021/06/30 08:59:58;;;;;;;10.13;9.33;;;22.00;99.90;;;;;;5037037;28;20451;-72
2021/06/30 09:02:23;;;;;;;10.70;9.70;;;21.80;99.90;;;;;;5040914;28;20832;-72
2021/06/30 09:04:59;;;;;;;11.23;10.23;;;21.80;99.90;;;;;;5038326;28;20442;-72
2021/06/30 09:07:24;;;;;;;9.03;8.33;;;22.00;99.90;;;;;;5040797;28;20265;-72
2021/06/30 09:09:50;;;;;;;8.70;7.00;;;22.90;99.90;;;;;;5038860;28;20427;-72
2021/06/30 09:12:16;;;;;;;8.60;6.10;;;24.60;99.90;;;;;;5038454;28;20221;-72
2021/06/30 09:14:42;;;;;;;5.90;5.40;;;26.50;99.90;;;;;;5035351;28;20173;-72
2021/06/30 09:19:56;;;;;;;6.27;5.77;;;28.80;93.30;;;;;;5054043;28;20564;-71
2021/06/30 09:22:26;;;;;;;6.90;6.40;;;28.60;91.70;;;;;;5041864;28;20445;-71
2021/06/30 09:24:52;;;;;;;7.60;7.00;;;27.80;93.20;;;;;;5043619;28;20440;-71
2021/06/30 09:27:19;;;;;;;7.10;6.60;;;27.20;94.00;;;;;;5039321;28;20565;-71
2021/06/30 09:29:46;;;;;;;7.23;6.60;;;26.50;95.50;;;;;;5045392;28;20450;-71
2021/06/30 09:32:15;;;;;;;6.43;6.03;;;26.10;96.40;;;;;;5043605;28;20492;-71
2021/06/30 09:34:41;;;;;;;6.40;5.90;;;25.70;97.30;;;;;;5038657;28;20444;-71
2021/06/30 09:37:08;;;;;;;5.80;5.40;;;25.40;98.50;;;;;;5046148;28;20440;-73
2021/06/30 09:39:38;;;;;;;6.43;5.93;;;25.00;99.00;;;;;;5041626;28;20650;-73
2021/06/30 09:44:43;;;;;;;5.50;5.00;;;24.80;99.90;;;;;;5066059;28;20545;-73
2021/06/30 09:47:09;;;;;;;5.77;5.37;;;25.60;99.90;;;;;;5043054;28;20446;-73
2021/06/30 09:49:37;;;;;;;5.77;5.27;;;25.90;99.90;;;;;;5042342;28;20419;-74
2021/06/30 09:54:48;;;;;;;5.43;5.03;;;26.00;99.60;;;;;;5040687;28;21093;-73
2021/06/30 09:57:15;;;;;;;4.50;4.20;;;25.90;98.70;;;;;;5025015;28;20446;-73
2021/06/30 09:59:44;;;;;;;3.73;3.43;;;25.70;99.40;;;;;;5021860;28;20571;-73
2021/06/30 10:02:12;;;;;;;2.90;2.70;;;25.60;98.50;;;;;;5021402;28;20523;-73
2021/06/30 10:04:40;;;;;;;2.67;2.47;;;25.30;98.40;;;;;;5023831;28;20468;-73
2021/06/30 10:07:10;;;;;;;2.80;2.60;;;25.00;99.00;;;;;;5024120;28;20435;-73
2021/06/30 10:09:38;;;;;;;2.53;2.33;;;24.70;98.80;;;;;;5020491;28;20940;-73
2021/06/30 10:12:07;;;;;;;3.30;3.00;;;24.70;99.70;;;;;;5023038;28;20423;-73
2021/06/30 10:14:34;;;;;;;2.63;2.43;;;24.70;99.90;;;;;;5023413;28;20462;-73
2021/06/30 10:17:00;;;;;;;2.50;2.30;;;24.70;99.90;;;;;;5020991;28;20440;-73
2021/06/30 10:19:27;;;;;;;2.53;2.33;;;24.40;99.90;;;;;;5020237;28;20843;-73
2021/06/30 10:21:52;;;;;;;3.43;3.13;;;24.20;99.90;;;;;;5021770;28;20431;-73
2021/06/30 10:24:19;;;;;;;2.20;2.00;;;24.10;99.90;;;;;;5021024;28;20431;-73
2021/06/30 10:26:46;;;;;;;4.90;2.67;;;23.90;99.90;;;;;;5023349;28;20183;-73
2021/06/30 10:29:12;;;;;;;2.50;2.30;;;23.80;99.90;;;;;;5020376;28;20582;-73
2021/06/30 10:31:38;;;;;;;5.50;4.50;;;23.80;99.90;;;;;;5022953;28;20447;-73
2021/06/30 10:34:07;;;;;;;8.40;5.83;;;23.70;99.90;;;;;;5024132;28;20463;-73
2021/06/30 10:36:54;;;;;;;4.63;4.17;;;23.70;99.90;;;;;;5017353;28;20519;-73
2021/06/30 10:48:11;;;;;;;4.13;3.30;;;23.50;99.90;;;;;;5060572;28;20678;-74
2021/06/30 10:50:57;;;;;;;5.17;3.73;;;23.50;99.90;;;;;;5061075;28;20430;-74
2021/06/30 10:56:02;;;;;;;2.90;2.53;;;23.50;99.90;;;;;;5044321;28;20568;-73
2021/06/30 10:58:30;;;;;;;4.60;3.40;;;23.50;99.90;;;;;;5046471;28;20524;-73
2021/06/30 11:24:49;;;;;;;2.90;1.63;;;23.30;99.90;;;;;;5044212;28;20999;-72
2021/06/30 11:35:25;;;;;;;2.37;2.17;;;23.50;99.90;;;;;;5087039;27;20499;-73
2021/06/30 11:37:58;;;;;;;2.47;2.03;;;23.00;99.90;;;;;;5084007;28;20957;-73
2021/06/30 11:40:30;;;;;;;1.93;1.83;;;22.90;99.90;;;;;;5086771;28;20516;-73
2021/06/30 11:42:58;;;;;;;2.37;2.17;;;22.80;99.90;;;;;;5087633;28;20433;-73
2021/06/30 11:45:33;;;;;;;1.73;1.63;;;22.70;99.90;;;;;;5082986;28;20471;-73
2021/06/30 11:48:03;;;;;;;1.70;1.60;;;22.60;99.90;;;;;;5089496;28;20468;-73
2021/06/30 11:50:42;;;;;;;2.40;1.67;;;22.60;99.90;;;;;;5083037;28;20821;-73
2021/06/30 11:53:08;;;;;;;3.03;2.73;;;22.40;99.90;;;;;;5083877;28;20479;-73
2021/06/30 11:55:38;;;;;;;2.40;2.20;;;22.20;99.90;;;;;;5085038;28;20429;-73
2021/06/30 11:58:04;;;;;;;2.40;2.20;;;22.00;99.90;;;;;;5085799;28;20183;-73
2021/06/30 12:00:32;;;;;;;2.67;2.37;;;21.80;99.90;;;;;;5080773;28;20463;-73
2021/06/30 12:03:00;;;;;;;3.73;3.40;;;21.70;99.90;;;;;;5083174;28;20616;-73
2021/06/30 12:05:28;;;;;;;2.63;2.43;;;21.60;99.90;;;;;;5084993;28;20424;-73
2021/06/30 12:07:55;;;;;;;4.43;2.50;;;21.40;99.90;;;;;;5079474;28;20420;-73
2021/06/30 12:10:29;;;;;;;3.33;3.03;;;21.30;99.90;;;;;;5085292;28;20917;-73
2021/06/30 12:12:54;;;;;;;2.37;2.17;;;21.30;99.90;;;;;;5079428;28;20952;-73
2021/06/30 12:15:20;;;;;;;2.73;2.53;;;21.30;99.90;;;;;;5081496;28;20453;-73
2021/06/30 12:17:48;;;;;;;3.03;2.83;;;21.20;99.90;;;;;;5086075;28;20244;-73
2021/06/30 12:20:15;;;;;;;2.30;1.90;;;21.10;99.90;;;;;;5081121;28;20183;-73
2021/06/30 12:22:41;;;;;;;3.13;2.83;;;21.10;99.90;;;;;;5074514;28;20813;-73
2021/06/30 12:30:35;;;;;;;3.67;3.37;;;20.90;99.90;;;;;;5051817;28;20688;-73
2021/06/30 12:33:03;;;;;;;4.07;3.13;;;20.80;99.90;;;;;;5033867;28;20940;-72
2021/06/30 12:35:31;;;;;;;3.50;3.20;;;20.80;99.90;;;;;;5027294;28;20443;-72
2021/06/30 12:37:59;;;;;;;2.90;2.63;;;20.70;99.90;;;;;;5034262;28;20514;-72
2021/06/30 12:40:26;;;;;;;5.13;2.70;;;20.50;99.90;;;;;;5036124;28;20469;-72
2021/06/30 12:45:52;;;;;;;3.23;2.63;;;20.30;99.90;;;;;;5123887;27;21080;-72
2021/06/30 12:51:08;;;;;;;3.90;3.40;;;20.20;99.90;;;;;;5103076;27;20984;-73
2021/06/30 12:53:36;;;;;;;4.37;3.23;;;20.20;99.90;;;;;;5100220;28;20427;-73
2021/06/30 12:56:04;;;;;;;3.60;3.30;;;20.30;99.90;;;;;;5100184;28;20478;-73
2021/06/30 12:58:55;;;;;;;4.40;3.60;;;20.40;99.90;;;;;;5102095;28;20534;-73
2021/06/30 13:01:31;;;;;;;3.70;3.33;;;20.60;99.90;;;;;;5090970;28;20565;-73
2021/06/30 13:03:59;;;;;;;3.13;2.90;;;20.80;99.90;;;;;;5091447;28;20436;-73
2021/06/30 13:06:26;;;;;;;6.30;4.00;;;21.00;99.90;;;;;;5099109;28;20929;-73
2021/06/30 13:09:14;;;;;;;6.50;5.17;;;21.20;99.90;;;;;;5096635;28;21024;-73
2021/06/30 13:14:21;;;;;;;12.90;7.80;;;21.50;99.90;;;;;;5116017;27;20541;-72
2021/06/30 13:16:56;;;;;;;7.80;5.53;;;21.50;99.90;;;;;;5124137;27;20791;-72
2021/06/30 13:19:26;;;;;;;4.57;4.07;;;21.50;99.90;;;;;;5116986;27;20938;-72
2021/06/30 13:21:59;;;;;;;4.07;3.03;;;21.40;99.90;;;;;;5112237;28;20424;-72
2021/06/30 13:24:38;;;;;;;3.60;3.30;;;21.30;99.90;;;;;;5117579;27;20436;-72
2021/06/30 13:35:29;;;;;;;4.13;3.50;;;21.20;99.90;;;;;;5002754;28;20443;-74
2021/06/30 13:38:05;;;;;;;3.90;3.50;;;21.10;99.90;;;;;;5025980;28;20799;-74
2021/06/30 13:40:34;;;;;;;4.20;3.60;;;21.10;99.90;;;;;;5004705;28;20806;-73
2021/06/30 13:43:03;;;;;;;5.10;3.87;;;21.00;99.90;;;;;;5005331;28;20914;-73
2021/06/30 13:45:39;;;;;;;4.10;3.80;;;20.80;99.90;;;;;;5032267;28;20845;-73
2021/06/30 13:48:07;;;;;;;4.60;4.20;;;20.70;99.90;;;;;;5014410;28;20459;-73
2021/06/30 13:50:34;;;;;;;4.80;4.30;;;20.50;99.90;;;;;;5002550;28;20451;-73
2021/06/30 13:53:00;;;;;;;6.57;5.87;;;20.40;99.90;;;;;;5003844;28;20845;-73
2021/06/30 13:55:26;;;;;;;10.33;5.53;;;20.30;99.90;;;;;;4996613;28;20428;-73
2021/06/30 13:57:53;;;;;;;6.37;5.43;;;20.30;99.90;;;;;;5000075;28;20536;-73